sensor_id;sensor_type;location;lat;lon;timestamp;temperature;humidity
49132;DHT22;35149;51.196;6.204;2022-09-09T00:02:22;19.30;67.30
49132;DHT22;35149;51.196;6.204;2022-09-09T00:05:18;19.30;67.70
49132;DHT22;35149;51.196;6.204;2022-09-09T00:07:55;19.30;67.60
49132;DHT22;35149;51.196;6.204;2022-09-09T00:10:34;19.20;67.40
49132;DHT22;35149;51.196;6.204;2022-09-09T00:13:28;19.20;67.80
49132;DHT22;35149;51.196;6.204;2022-09-09T00:16:21;19.20;67.80
49132;DHT22;35149;51.196;6.204;2022-09-09T00:19:22;19.10;67.20
49132;DHT22;35149;51.196;6.204;2022-09-09T00:22:16;19.10;67.90
49132;DHT22;35149;51.196;6.204;2022-09-09T00:24:52;19.00;67.70
49132;DHT22;35149;51.196;6.204;2022-09-09T00:27:37;19.00;67.80
49132;DHT22;35149;51.196;6.204;2022-09-09T00:30:25;19.00;68.10
49132;DHT22;35149;51.196;6.204;2022-09-09T00:33:01;19.00;68.10
49132;DHT22;35149;51.196;6.204;2022-09-09T00:35:44;18.90;68.00
49132;DHT22;35149;51.196;6.204;2022-09-09T00:38:34;18.90;68.10
49132;DHT22;35149;51.196;6.204;2022-09-09T00:41:18;18.90;68.60
49132;DHT22;35149;51.196;6.204;2022-09-09T00:43:57;18.90;68.30
49132;DHT22;35149;51.196;6.204;2022-09-09T00:46:47;18.80;68.00
49132;DHT22;35149;51.196;6.204;2022-09-09T00:49:31;18.80;68.40
49132;DHT22;35149;51.196;6.204;2022-09-09T00:52:30;18.80;68.60
49132;DHT22;35149;51.196;6.204;2022-09-09T00:57:41;18.80;68.30
49132;DHT22;35149;51.196;6.204;2022-09-09T01:00:22;18.70;67.90
49132;DHT22;35149;51.196;6.204;2022-09-09T01:05:49;18.70;68.70
49132;DHT22;35149;51.196;6.204;2022-09-09T01:08:52;18.60;69.00
49132;DHT22;35149;51.196;6.204;2022-09-09T01:16:38;18.60;68.70
49132;DHT22;35149;51.196;6.204;2022-09-09T01:19:07;18.50;68.20
49132;DHT22;35149;51.196;6.204;2022-09-09T01:21:54;18.50;68.40
49132;DHT22;35149;51.196;6.204;2022-09-09T01:27:08;18.50;69.40
49132;DHT22;35149;51.196;6.204;2022-09-09T01:29:36;18.50;68.30
49132;DHT22;35149;51.196;6.204;2022-09-09T01:32:37;18.50;68.50
49132;DHT22;35149;51.196;6.204;2022-09-09T01:38:03;18.40;69.30
49132;DHT22;35149;51.196;6.204;2022-09-09T01:40:41;18.40;68.50
49132;DHT22;35149;51.196;6.204;2022-09-09T01:43:11;18.40;68.60
49132;DHT22;35149;51.196;6.204;2022-09-09T01:45:41;18.40;68.80
49132;DHT22;35149;51.196;6.204;2022-09-09T01:48:10;18.40;68.90
49132;DHT22;35149;51.196;6.204;2022-09-09T01:50:48;18.40;68.90
49132;DHT22;35149;51.196;6.204;2022-09-09T01:53:21;18.40;68.90
49132;DHT22;35149;51.196;6.204;2022-09-09T01:56:28;18.40;69.00
49132;DHT22;35149;51.196;6.204;2022-09-09T01:59:02;18.40;69.50
49132;DHT22;35149;51.196;6.204;2022-09-09T02:04:39;18.40;69.40
49132;DHT22;35149;51.196;6.204;2022-09-09T02:07:43;18.40;69.30
49132;DHT22;35149;51.196;6.204;2022-09-09T02:10:37;18.40;69.40
49132;DHT22;35149;51.196;6.204;2022-09-09T02:13:16;18.40;69.60
49132;DHT22;35149;51.196;6.204;2022-09-09T02:15:52;18.30;68.90
49132;DHT22;35149;51.196;6.204;2022-09-09T02:18:28;18.30;69.20
49132;DHT22;35149;51.196;6.204;2022-09-09T02:20:58;18.30;69.20
49132;DHT22;35149;51.196;6.204;2022-09-09T02:23:28;18.30;69.20
49132;DHT22;35149;51.196;6.204;2022-09-09T02:26:03;18.30;69.40
49132;DHT22;35149;51.196;6.204;2022-09-09T02:28:33;18.30;69.40
49132;DHT22;35149;51.196;6.204;2022-09-09T02:31:02;18.20;69.40
49132;DHT22;35149;51.196;6.204;2022-09-09T02:33:42;18.30;69.40
49132;DHT22;35149;51.196;6.204;2022-09-09T02:36:17;18.30;69.70
49132;DHT22;35149;51.196;6.204;2022-09-09T02:38:47;18.30;69.30
49132;DHT22;35149;51.196;6.204;2022-09-09T02:41:34;18.20;69.40
49132;DHT22;35149;51.196;6.204;2022-09-09T02:44:01;18.20;70.20
49132;DHT22;35149;51.196;6.204;2022-09-09T02:52:18;18.20;70.00
49132;DHT22;35149;51.196;6.204;2022-09-09T02:54:53;18.20;70.40
49132;DHT22;35149;51.196;6.204;2022-09-09T02:57:27;18.20;70.20
49132;DHT22;35149;51.196;6.204;2022-09-09T02:59:59;18.20;70.10
49132;DHT22;35149;51.196;6.204;2022-09-09T03:02:31;18.20;70.00
49132;DHT22;35149;51.196;6.204;2022-09-09T03:05:06;18.10;70.00
49132;DHT22;35149;51.196;6.204;2022-09-09T03:07:35;18.10;70.20
49132;DHT22;35149;51.196;6.204;2022-09-09T03:10:05;18.10;70.20
49132;DHT22;35149;51.196;6.204;2022-09-09T03:12:37;18.10;70.50
49132;DHT22;35149;51.196;6.204;2022-09-09T03:15:07;18.10;70.40
49132;DHT22;35149;51.196;6.204;2022-09-09T03:17:36;18.10;70.50
49132;DHT22;35149;51.196;6.204;2022-09-09T03:20:04;18.10;70.50
49132;DHT22;35149;51.196;6.204;2022-09-09T03:22:32;18.10;70.60
49132;DHT22;35149;51.196;6.204;2022-09-09T03:25:07;18.10;70.70
49132;DHT22;35149;51.196;6.204;2022-09-09T03:27:37;18.10;70.70
49132;DHT22;35149;51.196;6.204;2022-09-09T03:30:04;18.10;70.70
49132;DHT22;35149;51.196;6.204;2022-09-09T03:32:31;18.10;70.70
49132;DHT22;35149;51.196;6.204;2022-09-09T03:35:00;18.10;70.70
49132;DHT22;35149;51.196;6.204;2022-09-09T03:37:27;18.10;70.70
49132;DHT22;35149;51.196;6.204;2022-09-09T03:39:56;18.10;70.80
49132;DHT22;35149;51.196;6.204;2022-09-09T03:42:25;18.10;70.80
49132;DHT22;35149;51.196;6.204;2022-09-09T03:44:59;18.10;70.90
49132;DHT22;35149;51.196;6.204;2022-09-09T03:47:33;18.10;70.80
49132;DHT22;35149;51.196;6.204;2022-09-09T03:50:06;18.10;70.80
49132;DHT22;35149;51.196;6.204;2022-09-09T03:52:43;18.20;71.00
49132;DHT22;35149;51.196;6.204;2022-09-09T03:55:23;18.10;71.00
49132;DHT22;35149;51.196;6.204;2022-09-09T03:57:52;18.20;71.10
49132;DHT22;35149;51.196;6.204;2022-09-09T04:00:19;18.20;71.30
49132;DHT22;35149;51.196;6.204;2022-09-09T04:02:53;18.20;71.40
49132;DHT22;35149;51.196;6.204;2022-09-09T04:05:23;18.20;71.60
49132;DHT22;35149;51.196;6.204;2022-09-09T04:07:52;18.30;71.60
49132;DHT22;35149;51.196;6.204;2022-09-09T04:10:21;18.30;71.40
49132;DHT22;35149;51.196;6.204;2022-09-09T04:12:48;18.30;71.30
49132;DHT22;35149;51.196;6.204;2022-09-09T04:15:15;18.30;71.30
49132;DHT22;35149;51.196;6.204;2022-09-09T04:17:43;18.30;71.30
49132;DHT22;35149;51.196;6.204;2022-09-09T04:20:12;18.40;71.30
49132;DHT22;35149;51.196;6.204;2022-09-09T04:22:38;18.40;71.40
49132;DHT22;35149;51.196;6.204;2022-09-09T04:25:06;18.40;71.30
49132;DHT22;35149;51.196;6.204;2022-09-09T04:27:34;18.40;72.10
49132;DHT22;35149;51.196;6.204;2022-09-09T04:30:03;18.40;71.50
49132;DHT22;35149;51.196;6.204;2022-09-09T04:32:33;18.50;71.40
49132;DHT22;35149;51.196;6.204;2022-09-09T04:35:02;18.50;71.50
49132;DHT22;35149;51.196;6.204;2022-09-09T04:37:33;18.50;71.50
49132;DHT22;35149;51.196;6.204;2022-09-09T04:40:00;18.50;71.40
49132;DHT22;35149;51.196;6.204;2022-09-09T04:42:35;18.60;71.50
49132;DHT22;35149;51.196;6.204;2022-09-09T04:45:03;18.60;71.60
49132;DHT22;35149;51.196;6.204;2022-09-09T04:47:31;18.60;70.80
49132;DHT22;35149;51.196;6.204;2022-09-09T04:49:58;18.60;71.00
49132;DHT22;35149;51.196;6.204;2022-09-09T04:52:25;18.60;71.30
49132;DHT22;35149;51.196;6.204;2022-09-09T04:54:53;18.60;71.90
49132;DHT22;35149;51.196;6.204;2022-09-09T04:57:22;18.70;71.40
49132;DHT22;35149;51.196;6.204;2022-09-09T04:59:48;18.70;71.40
49132;DHT22;35149;51.196;6.204;2022-09-09T05:02:15;18.70;71.40
49132;DHT22;35149;51.196;6.204;2022-09-09T05:04:42;18.70;71.40
49132;DHT22;35149;51.196;6.204;2022-09-09T05:07:08;18.70;71.30
49132;DHT22;35149;51.196;6.204;2022-09-09T05:09:35;18.70;71.30
49132;DHT22;35149;51.196;6.204;2022-09-09T05:12:03;18.70;71.10
49132;DHT22;35149;51.196;6.204;2022-09-09T05:14:34;18.80;71.10
49132;DHT22;35149;51.196;6.204;2022-09-09T05:17:04;18.70;70.90
49132;DHT22;35149;51.196;6.204;2022-09-09T05:19:32;18.70;71.00
49132;DHT22;35149;51.196;6.204;2022-09-09T05:21:58;18.70;70.90
49132;DHT22;35149;51.196;6.204;2022-09-09T05:24:33;18.80;70.90
49132;DHT22;35149;51.196;6.204;2022-09-09T05:27:02;18.80;70.80
49132;DHT22;35149;51.196;6.204;2022-09-09T05:29:29;18.80;70.70
49132;DHT22;35149;51.196;6.204;2022-09-09T05:31:56;18.70;70.70
49132;DHT22;35149;51.196;6.204;2022-09-09T05:34:23;18.80;70.80
49132;DHT22;35149;51.196;6.204;2022-09-09T05:36:50;18.80;70.70
49132;DHT22;35149;51.196;6.204;2022-09-09T05:39:19;18.80;70.70
49132;DHT22;35149;51.196;6.204;2022-09-09T05:41:46;18.80;70.70
49132;DHT22;35149;51.196;6.204;2022-09-09T05:44:13;18.70;70.60
49132;DHT22;35149;51.196;6.204;2022-09-09T05:46:45;18.70;70.50
49132;DHT22;35149;51.196;6.204;2022-09-09T05:49:13;18.70;70.60
49132;DHT22;35149;51.196;6.204;2022-09-09T05:51:43;18.70;70.60
49132;DHT22;35149;51.196;6.204;2022-09-09T05:54:12;18.70;70.60
49132;DHT22;35149;51.196;6.204;2022-09-09T05:56:46;18.60;70.60
49132;DHT22;35149;51.196;6.204;2022-09-09T05:59:17;18.60;70.70
49132;DHT22;35149;51.196;6.204;2022-09-09T06:01:44;18.60;70.70
49132;DHT22;35149;51.196;6.204;2022-09-09T06:04:25;18.70;70.90
49132;DHT22;35149;51.196;6.204;2022-09-09T06:06:52;18.60;70.80
49132;DHT22;35149;51.196;6.204;2022-09-09T06:09:22;18.60;70.80
49132;DHT22;35149;51.196;6.204;2022-09-09T06:11:51;18.60;70.80
49132;DHT22;35149;51.196;6.204;2022-09-09T06:14:22;18.60;70.90
49132;DHT22;35149;51.196;6.204;2022-09-09T06:16:51;18.60;70.80
49132;DHT22;35149;51.196;6.204;2022-09-09T06:19:21;18.70;70.80
49132;DHT22;35149;51.196;6.204;2022-09-09T06:21:48;18.70;70.90
49132;DHT22;35149;51.196;6.204;2022-09-09T06:24:19;18.60;70.80
49132;DHT22;35149;51.196;6.204;2022-09-09T06:26:48;18.70;70.80
49132;DHT22;35149;51.196;6.204;2022-09-09T06:29:20;18.70;70.80
49132;DHT22;35149;51.196;6.204;2022-09-09T06:31:46;18.70;70.80
49132;DHT22;35149;51.196;6.204;2022-09-09T06:34:21;18.70;70.80
49132;DHT22;35149;51.196;6.204;2022-09-09T06:36:54;18.70;70.70
49132;DHT22;35149;51.196;6.204;2022-09-09T06:39:22;18.70;70.80
49132;DHT22;35149;51.196;6.204;2022-09-09T06:41:52;18.70;70.70
49132;DHT22;35149;51.196;6.204;2022-09-09T06:44:48;18.70;70.70
49132;DHT22;35149;51.196;6.204;2022-09-09T06:47:25;18.70;70.60
49132;DHT22;35149;51.196;6.204;2022-09-09T06:49:56;18.70;70.70
49132;DHT22;35149;51.196;6.204;2022-09-09T06:52:24;18.70;70.80
49132;DHT22;35149;51.196;6.204;2022-09-09T06:54:53;18.70;71.00
49132;DHT22;35149;51.196;6.204;2022-09-09T06:57:20;18.80;71.40
49132;DHT22;35149;51.196;6.204;2022-09-09T07:00:13;18.80;71.70
49132;DHT22;35149;51.196;6.204;2022-09-09T07:02:40;18.90;72.20
49132;DHT22;35149;51.196;6.204;2022-09-09T07:05:09;19.00;71.40
49132;DHT22;35149;51.196;6.204;2022-09-09T07:07:36;19.10;71.00
49132;DHT22;35149;51.196;6.204;2022-09-09T07:10:06;19.20;71.00
49132;DHT22;35149;51.196;6.204;2022-09-09T07:12:35;19.30;70.40
49132;DHT22;35149;51.196;6.204;2022-09-09T07:15:02;19.40;70.40
49132;DHT22;35149;51.196;6.204;2022-09-09T07:17:29;19.50;70.30
49132;DHT22;35149;51.196;6.204;2022-09-09T07:19:59;19.50;70.10
49132;DHT22;35149;51.196;6.204;2022-09-09T07:22:27;19.60;69.60
49132;DHT22;35149;51.196;6.204;2022-09-09T07:24:55;19.70;69.30
49132;DHT22;35149;51.196;6.204;2022-09-09T07:27:22;19.80;69.30
49132;DHT22;35149;51.196;6.204;2022-09-09T07:29:49;19.90;69.00
49132;DHT22;35149;51.196;6.204;2022-09-09T07:32:17;20.00;68.60
49132;DHT22;35149;51.196;6.204;2022-09-09T07:34:46;20.00;68.30
49132;DHT22;35149;51.196;6.204;2022-09-09T07:37:13;20.10;67.90
49132;DHT22;35149;51.196;6.204;2022-09-09T07:39:46;20.10;67.60
49132;DHT22;35149;51.196;6.204;2022-09-09T07:42:17;20.10;67.20
49132;DHT22;35149;51.196;6.204;2022-09-09T07:44:43;20.10;67.00
49132;DHT22;35149;51.196;6.204;2022-09-09T07:47:13;20.10;66.80
49132;DHT22;35149;51.196;6.204;2022-09-09T07:49:46;20.10;66.80
49132;DHT22;35149;51.196;6.204;2022-09-09T07:52:20;20.10;66.90
49132;DHT22;35149;51.196;6.204;2022-09-09T07:54:55;20.00;66.60
49132;DHT22;35149;51.196;6.204;2022-09-09T07:57:23;20.00;66.70
49132;DHT22;35149;51.196;6.204;2022-09-09T07:59:51;20.00;66.70
49132;DHT22;35149;51.196;6.204;2022-09-09T08:02:19;20.00;66.80
49132;DHT22;35149;51.196;6.204;2022-09-09T08:04:45;20.00;66.60
49132;DHT22;35149;51.196;6.204;2022-09-09T08:07:13;20.00;66.40
49132;DHT22;35149;51.196;6.204;2022-09-09T08:09:48;20.00;66.50
49132;DHT22;35149;51.196;6.204;2022-09-09T08:12:20;20.00;66.50
49132;DHT22;35149;51.196;6.204;2022-09-09T08:14:48;20.00;66.20
49132;DHT22;35149;51.196;6.204;2022-09-09T08:17:19;20.00;66.50
49132;DHT22;35149;51.196;6.204;2022-09-09T08:19:46;20.10;66.50
49132;DHT22;35149;51.196;6.204;2022-09-09T08:22:18;20.20;66.30
49132;DHT22;35149;51.196;6.204;2022-09-09T08:24:45;20.30;66.10
49132;DHT22;35149;51.196;6.204;2022-09-09T08:27:13;20.40;66.10
49132;DHT22;35149;51.196;6.204;2022-09-09T08:29:43;20.60;65.50
49132;DHT22;35149;51.196;6.204;2022-09-09T08:32:11;20.60;64.70
49132;DHT22;35149;51.196;6.204;2022-09-09T08:34:38;20.80;65.00
49132;DHT22;35149;51.196;6.204;2022-09-09T08:37:13;20.90;64.30
49132;DHT22;35149;51.196;6.204;2022-09-09T08:39:43;21.00;64.10
49132;DHT22;35149;51.196;6.204;2022-09-09T08:42:21;21.10;63.90
49132;DHT22;35149;51.196;6.204;2022-09-09T08:45:20;21.20;62.90
49132;DHT22;35149;51.196;6.204;2022-09-09T08:48:08;21.30;62.30
49132;DHT22;35149;51.196;6.204;2022-09-09T08:50:38;21.40;60.90
49132;DHT22;35149;51.196;6.204;2022-09-09T08:53:29;21.40;61.50
49132;DHT22;35149;51.196;6.204;2022-09-09T08:56:03;21.50;61.00
49132;DHT22;35149;51.196;6.204;2022-09-09T08:58:46;21.50;61.00
49132;DHT22;35149;51.196;6.204;2022-09-09T09:04:26;21.60;60.40
49132;DHT22;35149;51.196;6.204;2022-09-09T09:10:17;21.80;60.00
49132;DHT22;35149;51.196;6.204;2022-09-09T09:13:39;21.90;60.40
49132;DHT22;35149;51.196;6.204;2022-09-09T09:16:14;22.00;59.30
49132;DHT22;35149;51.196;6.204;2022-09-09T09:18:49;22.10;59.60
49132;DHT22;35149;51.196;6.204;2022-09-09T09:21:20;22.20;59.60
49132;DHT22;35149;51.196;6.204;2022-09-09T09:23:59;22.30;59.00
49132;DHT22;35149;51.196;6.204;2022-09-09T09:26:34;22.50;58.50
49132;DHT22;35149;51.196;6.204;2022-09-09T09:29:10;22.60;57.80
49132;DHT22;35149;51.196;6.204;2022-09-09T09:31:41;22.60;56.90
49132;DHT22;35149;51.196;6.204;2022-09-09T09:34:08;22.70;56.90
49132;DHT22;35149;51.196;6.204;2022-09-09T09:36:45;22.80;56.70
49132;DHT22;35149;51.196;6.204;2022-09-09T09:39:24;22.80;56.60
49132;DHT22;35149;51.196;6.204;2022-09-09T09:42:16;22.80;56.00
49132;DHT22;35149;51.196;6.204;2022-09-09T09:44:51;22.90;55.80
49132;DHT22;35149;51.196;6.204;2022-09-09T09:47:22;22.80;55.70
49132;DHT22;35149;51.196;6.204;2022-09-09T09:50:24;22.80;56.00
49132;DHT22;35149;51.196;6.204;2022-09-09T09:53:01;22.70;55.60
49132;DHT22;35149;51.196;6.204;2022-09-09T09:55:35;22.60;55.30
49132;DHT22;35149;51.196;6.204;2022-09-09T09:58:04;22.80;56.10
49132;DHT22;35149;51.196;6.204;2022-09-09T10:00:33;22.50;56.20
49132;DHT22;35149;51.196;6.204;2022-09-09T10:03:27;22.50;57.60
49132;DHT22;35149;51.196;6.204;2022-09-09T10:05:56;22.50;56.20
49132;DHT22;35149;51.196;6.204;2022-09-09T10:08:27;22.50;56.70
49132;DHT22;35149;51.196;6.204;2022-09-09T10:16:44;22.80;55.60
49132;DHT22;35149;51.196;6.204;2022-09-09T10:19:16;22.80;55.40
49132;DHT22;35149;51.196;6.204;2022-09-09T10:29:53;22.70;56.20
49132;DHT22;35149;51.196;6.204;2022-09-09T10:32:36;22.70;56.60
49132;DHT22;35149;51.196;6.204;2022-09-09T10:35:28;22.70;56.30
49132;DHT22;35149;51.196;6.204;2022-09-09T10:38:03;22.80;56.10
49132;DHT22;35149;51.196;6.204;2022-09-09T10:40:33;22.80;56.20
49132;DHT22;35149;51.196;6.204;2022-09-09T10:43:13;22.80;56.20
49132;DHT22;35149;51.196;6.204;2022-09-09T10:51:58;23.00;54.90
49132;DHT22;35149;51.196;6.204;2022-09-09T10:54:47;23.10;56.20
49132;DHT22;35149;51.196;6.204;2022-09-09T10:57:46;23.10;55.60
49132;DHT22;35149;51.196;6.204;2022-09-09T11:00:28;23.30;55.60
49132;DHT22;35149;51.196;6.204;2022-09-09T11:03:01;23.20;54.80
49132;DHT22;35149;51.196;6.204;2022-09-09T11:13:38;23.60;54.50
49132;DHT22;35149;51.196;6.204;2022-09-09T11:16:19;23.70;55.00
49132;DHT22;35149;51.196;6.204;2022-09-09T11:18:48;23.80;54.00
49132;DHT22;35149;51.196;6.204;2022-09-09T11:21:31;23.90;54.50
49132;DHT22;35149;51.196;6.204;2022-09-09T11:24:03;24.00;53.90
49132;DHT22;35149;51.196;6.204;2022-09-09T11:26:32;24.00;53.20
49132;DHT22;35149;51.196;6.204;2022-09-09T11:41:02;24.00;52.50
49132;DHT22;35149;51.196;6.204;2022-09-09T11:43:38;23.90;54.40
49132;DHT22;35149;51.196;6.204;2022-09-09T11:46:09;23.80;54.90
49132;DHT22;35149;51.196;6.204;2022-09-09T11:58:59;23.10;56.50
49132;DHT22;35149;51.196;6.204;2022-09-09T12:01:44;23.00;57.40
49132;DHT22;35149;51.196;6.204;2022-09-09T12:04:16;22.90;58.10
49132;DHT22;35149;51.196;6.204;2022-09-09T12:07:03;22.80;59.10
49132;DHT22;35149;51.196;6.204;2022-09-09T12:09:45;22.80;59.00
49132;DHT22;35149;51.196;6.204;2022-09-09T12:17:20;22.80;59.40
49132;DHT22;35149;51.196;6.204;2022-09-09T12:19:59;22.80;59.50
49132;DHT22;35149;51.196;6.204;2022-09-09T12:22:34;22.80;59.10
49132;DHT22;35149;51.196;6.204;2022-09-09T12:30:29;22.90;58.70
49132;DHT22;35149;51.196;6.204;2022-09-09T12:33:11;23.00;58.70
49132;DHT22;35149;51.196;6.204;2022-09-09T12:35:42;23.10;58.60
49132;DHT22;35149;51.196;6.204;2022-09-09T12:38:15;23.20;58.90
49132;DHT22;35149;51.196;6.204;2022-09-09T12:40:55;23.40;57.90
49132;DHT22;35149;51.196;6.204;2022-09-09T12:43:24;23.50;57.80
49132;DHT22;35149;51.196;6.204;2022-09-09T12:46:01;23.60;58.40
49132;DHT22;35149;51.196;6.204;2022-09-09T12:48:44;23.70;58.40
49132;DHT22;35149;51.196;6.204;2022-09-09T12:51:27;23.80;58.00
49132;DHT22;35149;51.196;6.204;2022-09-09T12:53:54;24.10;57.30
49132;DHT22;35149;51.196;6.204;2022-09-09T12:56:24;24.30;56.80
49132;DHT22;35149;51.196;6.204;2022-09-09T12:58:54;24.40;55.90
49132;DHT22;35149;51.196;6.204;2022-09-09T13:01:30;24.50;55.70
49132;DHT22;35149;51.196;6.204;2022-09-09T13:03:58;24.60;56.00
49132;DHT22;35149;51.196;6.204;2022-09-09T13:06:30;24.70;55.30
49132;DHT22;35149;51.196;6.204;2022-09-09T13:08:59;24.80;55.20
49132;DHT22;35149;51.196;6.204;2022-09-09T13:11:41;24.80;54.80
49132;DHT22;35149;51.196;6.204;2022-09-09T13:14:18;24.90;54.40
49132;DHT22;35149;51.196;6.204;2022-09-09T13:17:25;24.90;54.60
49132;DHT22;35149;51.196;6.204;2022-09-09T13:19:53;24.70;53.70
49132;DHT22;35149;51.196;6.204;2022-09-09T13:22:29;24.60;54.60
49132;DHT22;35149;51.196;6.204;2022-09-09T13:25:27;24.50;54.10
49132;DHT22;35149;51.196;6.204;2022-09-09T13:28:01;24.50;54.20
49132;DHT22;35149;51.196;6.204;2022-09-09T13:30:33;24.40;54.10
49132;DHT22;35149;51.196;6.204;2022-09-09T13:35:46;24.20;54.10
49132;DHT22;35149;51.196;6.204;2022-09-09T13:38:17;24.00;54.10
49132;DHT22;35149;51.196;6.204;2022-09-09T13:43:22;23.70;57.60
49132;DHT22;35149;51.196;6.204;2022-09-09T13:45:55;23.30;57.90
49132;DHT22;35149;51.196;6.204;2022-09-09T13:48:23;22.80;58.50
49132;DHT22;35149;51.196;6.204;2022-09-09T13:54:18;21.90;61.80
49132;DHT22;35149;51.196;6.204;2022-09-09T13:56:47;21.30;62.20
49132;DHT22;35149;51.196;6.204;2022-09-09T13:59:19;21.00;63.50
49132;DHT22;35149;51.196;6.204;2022-09-09T14:02:03;20.70;65.40
49132;DHT22;35149;51.196;6.204;2022-09-09T14:04:30;20.40;66.10
49132;DHT22;35149;51.196;6.204;2022-09-09T14:06:57;20.20;66.70
49132;DHT22;35149;51.196;6.204;2022-09-09T14:09:24;20.10;67.60
49132;DHT22;35149;51.196;6.204;2022-09-09T14:11:51;19.90;68.00
49132;DHT22;35149;51.196;6.204;2022-09-09T14:14:17;19.80;69.10
49132;DHT22;35149;51.196;6.204;2022-09-09T14:16:44;19.70;69.60
49132;DHT22;35149;51.196;6.204;2022-09-09T14:19:11;19.60;70.00
49132;DHT22;35149;51.196;6.204;2022-09-09T14:21:38;19.60;70.40
49132;DHT22;35149;51.196;6.204;2022-09-09T14:24:05;19.60;72.00
49132;DHT22;35149;51.196;6.204;2022-09-09T14:26:32;19.70;73.20
49132;DHT22;35149;51.196;6.204;2022-09-09T14:28:59;19.80;73.90
49132;DHT22;35149;51.196;6.204;2022-09-09T14:31:28;19.90;75.50
49132;DHT22;35149;51.196;6.204;2022-09-09T14:33:55;20.10;75.20
49132;DHT22;35149;51.196;6.204;2022-09-09T14:36:21;20.30;75.20
49132;DHT22;35149;51.196;6.204;2022-09-09T14:38:49;20.50;74.50
49132;DHT22;35149;51.196;6.204;2022-09-09T14:41:18;20.70;75.30
49132;DHT22;35149;51.196;6.204;2022-09-09T14:43:46;20.90;74.70
49132;DHT22;35149;51.196;6.204;2022-09-09T14:46:15;21.00;74.90
49132;DHT22;35149;51.196;6.204;2022-09-09T14:48:42;21.20;75.10
49132;DHT22;35149;51.196;6.204;2022-09-09T14:51:13;21.40;75.40
49132;DHT22;35149;51.196;6.204;2022-09-09T14:53:40;21.60;75.80
49132;DHT22;35149;51.196;6.204;2022-09-09T14:56:19;22.00;78.20
49132;DHT22;35149;51.196;6.204;2022-09-09T14:58:49;22.70;75.90
49132;DHT22;35149;51.196;6.204;2022-09-09T15:01:17;23.40;74.10
49132;DHT22;35149;51.196;6.204;2022-09-09T15:03:56;23.90;70.80
49132;DHT22;35149;51.196;6.204;2022-09-09T15:06:25;24.30;69.90
49132;DHT22;35149;51.196;6.204;2022-09-09T15:08:53;24.50;66.10
49132;DHT22;35149;51.196;6.204;2022-09-09T15:11:22;24.60;64.90
49132;DHT22;35149;51.196;6.204;2022-09-09T15:13:52;24.60;64.40
49132;DHT22;35149;51.196;6.204;2022-09-09T15:16:25;24.50;64.60
49132;DHT22;35149;51.196;6.204;2022-09-09T15:18:55;24.50;64.50
49132;DHT22;35149;51.196;6.204;2022-09-09T15:21:25;24.50;63.80
49132;DHT22;35149;51.196;6.204;2022-09-09T15:23:52;24.50;64.50
49132;DHT22;35149;51.196;6.204;2022-09-09T15:26:19;24.70;66.40
49132;DHT22;35149;51.196;6.204;2022-09-09T15:28:48;25.10;65.90
49132;DHT22;35149;51.196;6.204;2022-09-09T15:31:23;25.40;64.20
49132;DHT22;35149;51.196;6.204;2022-09-09T15:33:56;25.80;62.70
49132;DHT22;35149;51.196;6.204;2022-09-09T15:36:35;26.20;63.80
49132;DHT22;35149;51.196;6.204;2022-09-09T15:39:04;26.80;62.10
49132;DHT22;35149;51.196;6.204;2022-09-09T15:41:32;27.50;61.60
49132;DHT22;35149;51.196;6.204;2022-09-09T15:43:59;28.00;59.50
49132;DHT22;35149;51.196;6.204;2022-09-09T15:46:35;28.50;57.60
49132;DHT22;35149;51.196;6.204;2022-09-09T15:49:26;28.70;54.60
49132;DHT22;35149;51.196;6.204;2022-09-09T15:51:55;28.80;54.50
49132;DHT22;35149;51.196;6.204;2022-09-09T15:54:25;28.70;53.20
49132;DHT22;35149;51.196;6.204;2022-09-09T15:56:54;28.50;52.90
49132;DHT22;35149;51.196;6.204;2022-09-09T15:59:24;28.30;52.00
49132;DHT22;35149;51.196;6.204;2022-09-09T16:01:51;28.30;53.90
49132;DHT22;35149;51.196;6.204;2022-09-09T16:04:19;28.30;52.90
49132;DHT22;35149;51.196;6.204;2022-09-09T16:07:03;28.50;52.80
49132;DHT22;35149;51.196;6.204;2022-09-09T16:09:31;28.80;51.70
49132;DHT22;35149;51.196;6.204;2022-09-09T16:11:59;29.00;51.10
49132;DHT22;35149;51.196;6.204;2022-09-09T16:14:27;29.00;50.50
49132;DHT22;35149;51.196;6.204;2022-09-09T16:16:54;28.90;50.10
49132;DHT22;35149;51.196;6.204;2022-09-09T16:19:25;28.70;49.50
49132;DHT22;35149;51.196;6.204;2022-09-09T16:21:52;28.50;49.90
49132;DHT22;35149;51.196;6.204;2022-09-09T16:24:19;28.20;49.90
49132;DHT22;35149;51.196;6.204;2022-09-09T16:26:48;27.90;51.00
49132;DHT22;35149;51.196;6.204;2022-09-09T16:29:17;27.60;51.00
49132;DHT22;35149;51.196;6.204;2022-09-09T16:31:45;27.30;51.50
49132;DHT22;35149;51.196;6.204;2022-09-09T16:34:13;27.00;51.50
49132;DHT22;35149;51.196;6.204;2022-09-09T16:36:48;26.80;52.20
49132;DHT22;35149;51.196;6.204;2022-09-09T16:39:20;26.50;52.40
49132;DHT22;35149;51.196;6.204;2022-09-09T16:41:48;26.20;52.70
49132;DHT22;35149;51.196;6.204;2022-09-09T16:44:16;26.00;53.00
49132;DHT22;35149;51.196;6.204;2022-09-09T16:46:59;25.70;53.80
49132;DHT22;35149;51.196;6.204;2022-09-09T16:49:31;25.60;54.10
49132;DHT22;35149;51.196;6.204;2022-09-09T16:52:00;25.50;55.00
49132;DHT22;35149;51.196;6.204;2022-09-09T16:54:27;25.40;55.60
49132;DHT22;35149;51.196;6.204;2022-09-09T16:56:56;25.40;56.20
49132;DHT22;35149;51.196;6.204;2022-09-09T16:59:24;25.50;55.90
49132;DHT22;35149;51.196;6.204;2022-09-09T17:01:51;25.60;55.60
49132;DHT22;35149;51.196;6.204;2022-09-09T17:04:25;25.60;55.10
49132;DHT22;35149;51.196;6.204;2022-09-09T17:06:57;25.60;54.70
49132;DHT22;35149;51.196;6.204;2022-09-09T17:09:28;25.50;54.60
49132;DHT22;35149;51.196;6.204;2022-09-09T17:11:56;25.40;54.30
49132;DHT22;35149;51.196;6.204;2022-09-09T17:14:22;25.20;54.20
49132;DHT22;35149;51.196;6.204;2022-09-09T17:16:50;25.00;54.70
49132;DHT22;35149;51.196;6.204;2022-09-09T17:19:17;24.80;55.00
49132;DHT22;35149;51.196;6.204;2022-09-09T17:21:45;24.60;55.20
49132;DHT22;35149;51.196;6.204;2022-09-09T17:24:36;24.40;55.10
49132;DHT22;35149;51.196;6.204;2022-09-09T17:27:04;24.20;55.40
49132;DHT22;35149;51.196;6.204;2022-09-09T17:29:31;24.00;55.70
49132;DHT22;35149;51.196;6.204;2022-09-09T17:31:58;23.80;56.00
49132;DHT22;35149;51.196;6.204;2022-09-09T17:34:24;23.70;56.40
49132;DHT22;35149;51.196;6.204;2022-09-09T17:36:59;23.50;57.00
49132;DHT22;35149;51.196;6.204;2022-09-09T17:39:28;23.40;56.60
49132;DHT22;35149;51.196;6.204;2022-09-09T17:41:55;23.20;56.80
49132;DHT22;35149;51.196;6.204;2022-09-09T17:44:24;23.10;57.10
49132;DHT22;35149;51.196;6.204;2022-09-09T17:46:59;23.00;57.60
49132;DHT22;35149;51.196;6.204;2022-09-09T17:49:27;22.80;57.80